Time;durP1;ratioP1;P1;durP2;ratioP2;P2;SDS_P1;SDS_P2;PMS_P1;PMS_P2;Temp;Humidity;BMP_temperature;BMP_pressure;BME280_temperature;BME280_humidity;BME280_pressure;Samples;Min_cycle;Max_cycle;Signal;HPM_P1;HPM_P2
2022/12/14 00:02:07;;;;;;;51.20;31.77;;;;;;;3.09;92.65;94592.31;5073072;28;20490;-75
2022/12/14 00:04:33;;;;;;;47.87;28.67;;;;;;;3.07;93.67;94596.75;5037712;28;20444;-77
2022/12/14 00:07:00;;;;;;;40.93;25.30;;;;;;;3.09;93.38;94585.34;5021187;28;20492;-76
2022/12/14 00:09:27;;;;;;;38.53;25.10;;;;;;;3.11;93.58;94585.25;5072602;28;20449;-76
2022/12/14 00:11:55;;;;;;;32.30;21.17;;;;;;;3.07;92.84;94592.41;5037634;28;20448;-77
2022/12/14 00:14:22;;;;;;;30.97;18.70;;;;;;;2.94;92.97;94594.06;5073188;28;20480;-76
2022/12/14 00:16:49;;;;;;;36.50;22.27;;;;;;;2.95;93.50;94593.16;5071820;28;20933;-77
2022/12/14 00:19:16;;;;;;;31.93;19.23;;;;;;;3.03;93.62;94596.09;5037517;28;20441;-75
2022/12/14 00:21:42;;;;;;;29.33;18.63;;;;;;;3.08;93.35;94603.59;5037410;28;20451;-76
2022/12/14 00:24:10;;;;;;;28.80;16.60;;;;;;;3.08;93.27;94606.19;5020960;28;20437;-77
2022/12/14 00:26:37;;;;;;;32.17;18.33;;;;;;;3.16;93.14;94608.31;5072350;28;20527;-76
2022/12/14 00:29:05;;;;;;;25.27;17.60;;;;;;;3.24;92.38;94613.88;5072813;28;20448;-77
2022/12/14 00:31:32;;;;;;;31.87;17.37;;;;;;;3.34;92.67;94602.84;5072790;28;20853;-76
2022/12/14 00:33:59;;;;;;;34.50;19.20;;;;;;;3.43;92.86;94604.03;5072385;28;20484;-76
2022/12/14 00:36:27;;;;;;;33.33;20.10;;;;;;;3.44;92.40;94600.50;5072584;28;20475;-77
2022/12/14 00:38:53;;;;;;;33.20;19.90;;;;;;;3.45;92.94;94594.41;5072341;28;20470;-76
2022/12/14 00:41:20;;;;;;;36.70;21.37;;;;;;;3.44;93.40;94597.91;5072260;28;20486;-77
2022/12/14 00:43:47;;;;;;;32.03;18.80;;;;;;;3.43;93.91;94591.06;5072305;28;20455;-77
2022/12/14 00:46:15;;;;;;;26.07;18.13;;;;;;;3.42;93.43;94584.22;5072593;28;20451;-78
2022/12/14 00:48:43;;;;;;;36.10;23.87;;;;;;;3.28;93.90;94594.63;5072235;28;20471;-77
2022/12/14 00:51:09;;;;;;;26.37;18.87;;;;;;;3.10;94.17;94596.56;5072427;28;20438;-76
2022/12/14 00:53:36;;;;;;;33.17;22.50;;;;;;;2.88;95.53;94594.41;5072055;28;20483;-76
2022/12/14 00:56:07;;;;;;;29.57;19.77;;;;;;;2.83;95.87;94586.09;5072097;28;20445;-76
2022/12/14 00:58:34;;;;;;;25.13;15.37;;;;;;;2.76;95.77;94598.56;5072449;28;20505;-75
2022/12/14 01:01:03;;;;;;;29.40;18.20;;;;;;;2.78;96.48;94607.09;5072420;28;20448;-77
2022/12/14 01:03:31;;;;;;;22.47;15.40;;;;;;;2.81;96.92;94600.91;5072286;28;20445;-76
2022/12/14 01:05:58;;;;;;;30.93;18.30;;;;;;;2.88;96.91;94591.81;5072009;28;20448;-77
2022/12/14 01:08:25;;;;;;;19.10;14.37;;;;;;;2.86;96.24;94598.84;5072247;28;20444;-77
2022/12/14 01:10:52;;;;;;;21.23;15.37;;;;;;;2.85;96.28;94598.94;5072372;28;20450;-76
2022/12/14 01:13:20;;;;;;;18.30;13.87;;;;;;;2.83;96.17;94596.44;5072221;28;20487;-77
2022/12/14 01:15:47;;;;;;;16.83;11.97;;;;;;;2.65;96.56;94595.81;5072144;28;20449;-76
2022/12/14 01:18:14;;;;;;;17.27;13.40;;;;;;;2.71;96.44;94595.44;5037099;28;20935;-77
2022/12/14 01:20:42;;;;;;;16.93;12.93;;;;;;;2.83;96.48;94598.22;5072048;28;20845;-76
2022/12/14 01:23:09;;;;;;;15.10;10.03;;;;;;;2.72;95.33;94601.44;5037092;28;20460;-76
2022/12/14 01:25:35;;;;;;;12.63;10.10;;;;;;;2.66;95.38;94601.81;5072407;28;20545;-76
2022/12/14 01:28:02;;;;;;;12.93;9.03;;;;;;;2.67;95.45;94595.72;5073979;28;20449;-76
2022/12/14 01:30:29;;;;;;;15.63;9.87;;;;;;;2.45;96.70;94591.78;5076169;28;20790;-76
2022/12/14 01:32:56;;;;;;;12.07;9.87;;;;;;;2.36;97.14;94594.06;5040651;28;20451;-76
2022/12/14 01:35:23;;;;;;;12.63;9.00;;;;;;;2.31;97.27;94594.31;5075823;28;20851;-77
2022/12/14 01:37:51;;;;;;;13.50;9.63;;;;;;;2.10;98.80;94587.78;5075980;28;20805;-77
2022/12/14 01:40:18;;;;;;;10.13;8.60;;;;;;;2.09;99.11;94591.31;5075978;28;20487;-76
2022/12/14 01:42:44;;;;;;;10.67;9.47;;;;;;;2.03;100.00;94578.72;5075835;28;20449;-75
2022/12/14 01:45:21;;;;;;;12.27;8.60;;;;;;;1.80;100.00;94567.91;5075739;28;20494;-76
2022/12/14 01:47:54;;;;;;;13.77;9.30;;;;;;;1.70;100.00;94564.13;5075628;28;20573;-77
2022/12/14 01:50:29;;;;;;;11.87;9.43;;;;;;;1.72;100.00;94564.88;5075361;28;20446;-77
2022/12/14 01:53:01;;;;;;;12.50;8.75;;;;;;;1.55;100.00;94552.06;5075150;28;20548;-77
2022/12/14 01:55:32;;;;;;;12.97;9.03;;;;;;;1.64;100.00;94546.38;5075411;28;20743;-76
2022/12/14 01:58:03;;;;;;;11.80;9.20;;;;;;;1.53;100.00;94556.50;5075180;28;20455;-76
2022/12/14 02:00:31;;;;;;;12.90;9.97;;;;;;;1.79;100.00;94558.47;5075605;28;20440;-77
2022/12/14 02:03:02;;;;;;;18.50;10.07;;;;;;;1.72;100.00;94566.63;5075255;28;20451;-76
2022/12/14 02:05:31;;;;;;;13.00;9.20;;;;;;;1.79;100.00;94557.63;5024416;28;20447;-76
2022/12/14 02:07:59;;;;;;;11.33;9.00;;;;;;;1.72;100.00;94554.53;5075260;28;20448;-77
2022/12/14 02:10:29;;;;;;;14.63;8.80;;;;;;;1.58;100.00;94554.50;5075286;28;20444;-76
2022/12/14 02:13:02;;;;;;;17.45;9.85;;;;;;;1.63;100.00;94547.31;5074997;28;20194;-77
2022/12/14 02:15:30;;;;;;;13.87;10.47;;;;;;;1.65;100.00;94545.47;5075404;28;20215;-77
2022/12/14 02:17:57;;;;;;;13.85;9.70;;;;;;;1.57;100.00;94552.81;5075117;28;20956;-77
2022/12/14 02:20:27;;;;;;;10.50;8.98;;;;;;;1.67;100.00;94553.13;5075211;28;20656;-77
2022/12/14 02:23:36;;;;;;;12.35;8.52;;;;;;;1.84;100.00;94540.09;5023017;28;20205;-78
2022/12/14 02:26:39;;;;;;;14.27;9.90;;;;;;;1.91;100.00;94528.47;5075125;28;20208;-77
2022/12/14 02:29:38;;;;;;;15.13;10.38;;;;;;;1.90;100.00;94531.16;5075259;28;20202;-76
2022/12/14 02:32:17;;;;;;;15.98;9.18;;;;;;;2.02;100.00;94530.44;5075352;28;20206;-77
2022/12/14 02:34:56;;;;;;;16.50;10.67;;;;;;;2.00;100.00;94522.78;5074621;28;20642;-76
2022/12/14 02:37:32;;;;;;;13.45;9.63;;;;;;;2.03;100.00;94524.38;5074639;28;20534;-76
2022/12/14 02:40:10;;;;;;;14.40;9.40;;;;;;;2.21;100.00;94520.72;5073341;28;20245;-77
2022/12/14 02:42:46;;;;;;;13.37;10.47;;;;;;;2.34;99.45;94521.66;5074753;28;20800;-77
2022/12/14 02:45:24;;;;;;;12.83;9.07;;;;;;;2.36;99.28;94512.06;5074289;28;20852;-76
2022/12/14 02:47:55;;;;;;;12.97;10.23;;;;;;;2.37;98.38;94512.88;5074372;28;20470;-76
2022/12/14 02:50:29;;;;;;;16.90;11.10;;;;;;;2.42;98.37;94511.69;5074338;28;20452;-77
2022/12/14 02:53:03;;;;;;;14.10;10.60;;;;;;;2.51;98.29;94515.47;5074759;28;20448;-76
2022/12/14 02:55:34;;;;;;;15.83;11.60;;;;;;;2.34;97.90;94510.47;5074636;28;20487;-76
2022/12/14 02:58:05;;;;;;;13.30;9.97;;;;;;;2.41;97.54;94512.63;5074699;28;20455;-76
2022/12/14 03:00:36;;;;;;;16.03;10.23;;;;;;;2.51;97.91;94509.47;5074045;28;20454;-77
2022/12/14 03:03:05;;;;;;;14.43;10.77;;;;;;;2.61;97.32;94511.44;5074238;28;20445;-76
2022/12/14 03:05:32;;;;;;;14.27;11.23;;;;;;;2.70;97.44;94510.88;5074291;28;20468;-77
2022/12/14 03:08:03;;;;;;;15.60;11.23;;;;;;;2.70;96.34;94513.47;5074033;28;20447;-76
2022/12/14 03:10:37;;;;;;;13.30;11.33;;;;;;;2.77;95.86;94519.09;5074244;28;20448;-76
2022/12/14 03:13:09;;;;;;;20.10;13.47;;;;;;;2.78;95.69;94513.00;5074043;28;20448;-76
2022/12/14 03:15:41;;;;;;;21.43;15.27;;;;;;;2.83;95.69;94523.91;5073588;28;20483;-76
2022/12/14 03:18:10;;;;;;;25.03;15.20;;;;;;;2.77;94.84;94513.91;5073684;28;20445;-76
2022/12/14 03:20:39;;;;;;;17.90;13.90;;;;;;;2.71;95.29;94511.72;5073862;28;21013;-76
2022/12/14 03:23:10;;;;;;;25.13;14.43;;;;;;;2.60;95.19;94503.72;5073713;28;20448;-76
2022/12/14 03:25:42;;;;;;;36.63;23.27;;;;;;;2.54;95.08;94504.09;5073466;28;20882;-77
2022/12/14 03:28:17;;;;;;;19.33;14.43;;;;;;;2.54;95.95;94504.09;5074060;28;20458;-76
2022/12/14 03:30:50;;;;;;;15.07;11.07;;;;;;;2.45;96.09;94508.09;5039803;28;20621;-76
2022/12/14 03:33:21;;;;;;;15.17;12.20;;;;;;;2.47;95.77;94498.47;5073607;28;20867;-77
2022/12/14 03:35:55;;;;;;;18.23;12.93;;;;;;;2.37;95.91;94500.78;5073302;28;20536;-77
2022/12/14 03:38:28;;;;;;;25.92;14.13;;;;;;;2.32;96.26;94501.97;5073433;28;20242;-77
2022/12/14 03:41:03;;;;;;;19.40;13.50;;;;;;;2.27;96.58;94506.56;5039673;28;20275;-76
2022/12/14 03:43:37;;;;;;;22.70;14.80;;;;;;;2.26;97.11;94497.13;5073485;28;20447;-76
2022/12/14 03:46:11;;;;;;;18.90;13.57;;;;;;;2.29;97.16;94505.56;5073075;28;21005;-76
2022/12/14 03:48:44;;;;;;;17.53;12.63;;;;;;;2.29;96.80;94518.50;5038781;28;20473;-77
2022/12/14 03:51:20;;;;;;;16.70;12.97;;;;;;;2.34;96.38;94519.09;5073102;28;20463;-76
2022/12/14 03:53:51;;;;;;;20.00;14.70;;;;;;;2.22;95.10;94517.19;5073341;28;20988;-76
2022/12/14 03:56:27;;;;;;;25.83;14.73;;;;;;;2.23;96.17;94511.09;5073187;28;20455;-76
2022/12/14 03:59:01;;;;;;;17.23;13.15;;;;;;;2.22;95.92;94506.84;5072896;28;20442;-76
2022/12/14 04:01:39;;;;;;;14.03;11.80;;;;;;;2.19;96.03;94509.59;5072902;28;20213;-77
2022/12/14 04:04:11;;;;;;;17.27;12.47;;;;;;;2.29;95.81;94515.06;5072727;28;20448;-77
2022/12/14 04:06:44;;;;;;;12.90;10.33;;;;;;;2.39;96.78;94508.44;5073042;28;20984;-77
2022/12/14 04:09:22;;;;;;;15.40;12.37;;;;;;;2.37;95.16;94512.88;5073169;28;20448;-77
2022/12/14 04:20:24;;;;;;;20.97;16.20;;;;;;;2.69;93.88;94514.38;5072966;28;20809;-76
2022/12/14 04:22:56;;;;;;;20.93;15.07;;;;;;;2.73;93.63;94509.84;5072778;28;20440;-76
2022/12/14 04:30:57;;;;;;;29.10;19.70;;;;;;;2.78;93.49;94518.16;5071357;28;20440;-76
2022/12/14 04:36:25;;;;;;;24.87;16.10;;;;;;;2.60;93.31;94527.91;4991157;28;20448;-77
2022/12/14 04:38:57;;;;;;;22.83;14.20;;;;;;;2.64;92.99;94525.97;4991252;28;20445;-77
2022/12/14 04:41:30;;;;;;;17.33;13.25;;;;;;;2.65;92.60;94525.03;4990981;28;20446;-78
2022/12/14 04:44:02;;;;;;;19.40;12.87;;;;;;;2.63;93.38;94525.13;4990898;28;20274;-77
2022/12/14 04:46:32;;;;;;;13.80;11.80;;;;;;;2.65;93.13;94522.44;4990574;28;20458;-76
2022/12/14 04:49:07;;;;;;;13.90;10.60;;;;;;;2.72;92.17;94534.09;4990919;28;20472;-76
2022/12/14 04:51:41;;;;;;;15.10;11.07;;;;;;;2.82;92.33;94537.78;4991943;28;20455;-76
2022/12/14 04:54:17;;;;;;;12.53;10.13;;;;;;;2.89;92.25;94544.28;4991842;28;20487;-76
2022/12/14 04:56:49;;;;;;;20.80;14.53;;;;;;;2.92;91.89;94557.06;4991963;28;20567;-77
2022/12/14 04:59:16;;;;;;;23.07;13.90;;;;;;;2.89;90.69;94541.69;4991759;28;20452;-76
2022/12/14 05:01:54;;;;;;;29.70;17.27;;;;;;;2.80;91.07;94539.63;4991371;28;20449;-75
2022/12/14 05:04:35;;;;;;;14.77;12.80;;;;;;;2.62;91.41;94539.00;4991885;28;20456;-76
2022/12/14 05:07:11;;;;;;;19.10;13.20;;;;;;;2.61;92.71;94541.69;4992109;28;20487;-75
2022/12/14 05:09:43;;;;;;;17.23;12.97;;;;;;;2.64;93.31;94541.50;4992180;28;20460;-75
2022/12/14 05:12:16;;;;;;;15.67;10.93;;;;;;;2.67;93.28;94539.56;5035420;28;20938;-76
2022/12/14 05:14:49;;;;;;;13.20;10.80;;;;;;;2.73;92.58;94534.00;5073242;28;20534;-76
2022/12/14 05:17:17;;;;;;;16.20;12.03;;;;;;;2.77;92.54;94532.06;5074265;28;20444;-75
2022/12/14 05:19:50;;;;;;;15.17;11.83;;;;;;;2.77;91.72;94537.22;5093543;28;20451;-77
2022/12/14 05:22:17;;;;;;;13.93;12.07;;;;;;;2.85;91.13;94552.31;5030004;28;20448;-77
2022/12/14 05:24:44;;;;;;;16.87;13.20;;;;;;;2.72;91.03;94549.63;5087683;28;20842;-76
2022/12/14 05:27:11;;;;;;;21.55;13.70;;;;;;;2.61;92.46;94552.03;5087894;28;20483;-77
2022/12/14 05:29:38;;;;;;;23.07;15.87;;;;;;;2.70;92.51;94561.84;5077733;28;20205;-76
2022/12/14 05:32:04;;;;;;;25.73;16.23;;;;;;;2.64;91.68;94557.03;5080398;28;20459;-76
2022/12/14 05:34:31;;;;;;;24.13;16.10;;;;;;;2.64;91.95;94562.22;5073166;28;20949;-76
2022/12/14 05:36:59;;;;;;;20.20;16.23;;;;;;;2.59;92.83;94579.75;5079126;28;20456;-75
2022/12/14 05:39:26;;;;;;;18.50;12.00;;;;;;;2.61;92.45;94585.72;5093071;28;20508;-77
2022/12/14 05:41:53;;;;;;;13.57;10.87;;;;;;;2.45;92.51;94586.59;5093408;28;20436;-77
2022/12/14 05:44:20;;;;;;;23.73;12.00;;;;;;;2.28;93.27;94591.91;5093748;28;20442;-78
2022/12/14 05:46:47;;;;;;;19.10;14.53;;;;;;;2.23;93.79;94588.75;5093724;28;20450;-76
2022/12/14 05:49:14;;;;;;;15.83;13.00;;;;;;;2.31;94.50;94591.72;5093570;28;20475;-77
2022/12/14 05:51:41;;;;;;;20.80;14.10;;;;;;;2.42;95.13;94580.75;5090248;28;20449;-79
2022/12/14 05:54:09;;;;;;;19.73;12.17;;;;;;;2.62;96.06;94575.25;5073292;28;20953;-79
2022/12/14 05:56:41;;;;;;;18.47;15.67;;;;;;;2.77;95.39;94570.91;5073037;28;20450;-79
2022/12/14 05:59:11;;;;;;;24.70;14.67;;;;;;;2.76;95.30;94564.06;5073319;28;20453;-77
2022/12/14 06:01:38;;;;;;;20.50;15.47;;;;;;;2.85;95.29;94575.63;5073711;28;20474;-79
2022/12/14 06:04:05;;;;;;;20.63;13.67;;;;;;;2.84;94.40;94572.22;5073232;28;20437;-78
2022/12/14 06:06:33;;;;;;;20.83;13.80;;;;;;;2.87;93.87;94578.97;5072940;28;20440;-79
2022/12/14 06:09:00;;;;;;;17.03;13.80;;;;;;;2.89;94.13;94577.97;5073058;28;20437;-76
2022/12/14 06:11:28;;;;;;;24.33;17.10;;;;;;;2.84;94.47;94579.97;5073369;28;20445;-77
2022/12/14 06:13:55;;;;;;;23.70;16.23;;;;;;;2.77;94.77;94574.34;5073266;28;20445;-77
2022/12/14 06:16:24;;;;;;;29.40;19.00;;;;;;;2.48;96.11;94572.63;5076367;28;20465;-76
2022/12/14 06:18:53;;;;;;;29.60;15.57;;;;;;;2.43;96.41;94578.09;5076586;28;20435;-77
2022/12/14 06:35:01;;;;;;;16.57;10.67;;;;;;;2.35;97.47;94610.53;5098332;28;21022;-77
2022/12/14 06:37:27;;;;;;;11.77;9.80;;;;;;;2.36;97.32;94615.63;5097225;28;20452;-77
2022/12/14 06:39:54;;;;;;;16.33;10.47;;;;;;;2.38;97.89;94613.78;5097083;28;20936;-77
2022/12/14 06:42:21;;;;;;;13.77;8.83;;;;;;;2.27;97.70;94607.53;5097885;28;20452;-77
2022/12/14 06:44:48;;;;;;;16.33;10.90;;;;;;;2.26;97.89;94605.84;5030475;28;20453;-78
2022/12/14 06:54:37;;;;;;;14.73;11.30;;;;;;;1.98;100.00;94604.00;5052454;28;20484;-76
2022/12/14 06:57:04;;;;;;;19.57;12.93;;;;;;;1.84;100.00;94603.03;5083369;28;20462;-77
2022/12/14 06:59:30;;;;;;;21.60;14.93;;;;;;;1.79;100.00;94594.69;5096437;28;20454;-78
2022/12/14 07:01:57;;;;;;;20.63;15.30;;;;;;;2.00;100.00;94597.81;5096107;28;20451;-77
2022/12/14 07:04:24;;;;;;;25.07;14.50;;;;;;;1.92;100.00;94589.66;5083669;28;20451;-79
2022/12/14 07:06:51;;;;;;;22.70;14.57;;;;;;;2.02;100.00;94602.88;5108707;28;20456;-78
2022/12/14 07:09:18;;;;;;;18.40;13.57;;;;;;;1.90;100.00;94608.75;5067856;28;20452;-77
2022/12/14 07:11:46;;;;;;;23.77;17.73;;;;;;;2.01;100.00;94624.50;5097747;28;20444;-76
2022/12/14 07:14:15;;;;;;;28.73;20.60;;;;;;;1.89;100.00;94638.16;5094677;28;20465;-77
2022/12/14 07:16:42;;;;;;;24.17;16.03;;;;;;;1.86;100.00;94627.06;5110964;28;20453;-77
2022/12/14 07:19:10;;;;;;;46.67;23.42;;;;;;;1.91;100.00;94625.97;5114006;28;20433;-78
2022/12/14 07:21:37;;;;;;;32.77;20.33;;;;;;;1.98;100.00;94625.53;5062311;28;20220;-76
2022/12/14 07:24:04;;;;;;;27.73;19.23;;;;;;;1.89;100.00;94620.03;5112865;28;20437;-77
2022/12/14 07:26:31;;;;;;;23.93;15.20;;;;;;;1.59;100.00;94607.88;5112587;28;20415;-77
2022/12/14 07:29:00;;;;;;;27.40;17.00;;;;;;;1.60;100.00;94608.69;5114895;28;20450;-78
2022/12/14 07:31:28;;;;;;;28.30;17.50;;;;;;;1.70;100.00;94622.78;5114574;28;20426;-77
2022/12/14 07:33:57;;;;;;;26.70;15.70;;;;;;;1.71;100.00;94617.53;5111868;28;20456;-77
2022/12/14 07:36:25;;;;;;;20.07;14.93;;;;;;;1.95;100.00;94614.50;5099797;28;20484;-78
2022/12/14 07:38:52;;;;;;;20.17;12.85;;;;;;;1.77;100.00;94612.03;5077423;28;20441;-77
2022/12/14 07:41:21;;;;;;;23.10;15.03;;;;;;;1.90;100.00;94617.38;5098426;28;20200;-78
2022/12/14 07:43:48;;;;;;;25.30;16.53;;;;;;;1.99;100.00;94631.53;5093328;28;20465;-78
2022/12/14 07:46:18;;;;;;;20.00;13.80;;;;;;;2.06;100.00;94625.13;5095628;28;20473;-78
2022/12/14 07:48:46;;;;;;;20.17;15.40;;;;;;;2.11;100.00;94633.44;5095408;28;20476;-77
2022/12/14 07:51:15;;;;;;;30.63;22.43;;;;;;;2.21;100.00;94637.19;5089299;28;20447;-77
2022/12/14 07:53:42;;;;;;;27.90;17.80;;;;;;;2.08;100.00;94631.03;5074570;28;20870;-76
2022/12/14 07:56:11;;;;;;;23.20;15.70;;;;;;;2.03;100.00;94631.31;5074424;28;20981;-76
2022/12/14 07:58:38;;;;;;;16.45;13.07;;;;;;;2.10;100.00;94624.84;5074439;28;20444;-76
2022/12/14 08:01:11;;;;;;;28.00;14.83;;;;;;;2.17;100.00;94631.34;5074611;28;20194;-77
2022/12/14 08:03:40;;;;;;;19.53;14.43;;;;;;;2.07;100.00;94627.63;5073889;28;20945;-79
2022/12/14 08:06:08;;;;;;;25.13;17.30;;;;;;;2.13;100.00;94619.50;5076673;28;20445;-77
2022/12/14 08:08:35;;;;;;;19.03;13.23;;;;;;;2.10;100.00;94624.03;5074188;28;20425;-77
2022/12/14 08:11:02;;;;;;;22.13;13.37;;;;;;;2.15;100.00;94625.44;5074678;28;20437;-77
2022/12/14 08:13:29;;;;;;;17.50;13.03;;;;;;;2.15;100.00;94625.44;5080399;28;20998;-77
2022/12/14 08:15:56;;;;;;;16.20;11.73;;;;;;;2.23;100.00;94630.16;5080707;28;20982;-77
2022/12/14 08:18:23;;;;;;;14.17;12.40;;;;;;;2.28;100.00;94638.50;5073524;28;20551;-76
2022/12/14 08:20:51;;;;;;;19.97;15.33;;;;;;;2.28;100.00;94643.66;5090000;28;20945;-77
2022/12/14 08:23:18;;;;;;;22.30;14.50;;;;;;;2.33;100.00;94652.03;5082068;28;20464;-76
2022/12/14 08:25:45;;;;;;;26.20;13.30;;;;;;;2.28;100.00;94648.84;5079463;28;20447;-77
2022/12/14 08:28:12;;;;;;;22.42;17.25;;;;;;;2.16;100.00;94650.38;5093933;28;20512;-77
2022/12/14 08:30:39;;;;;;;22.80;18.07;;;;;;;2.12;100.00;94648.91;5090666;28;20203;-77
2022/12/14 08:33:06;;;;;;;32.58;25.02;;;;;;;2.07;100.00;94658.66;5085257;28;20443;-77
2022/12/14 08:35:34;;;;;;;36.93;23.60;;;;;;;2.08;100.00;94657.75;5087959;28;20273;-76
2022/12/14 08:38:02;;;;;;;29.58;21.80;;;;;;;1.99;100.00;94653.06;5088448;28;20460;-77
2022/12/14 08:40:30;;;;;;;31.50;22.80;;;;;;;2.02;100.00;94658.06;5088385;28;20599;-77
2022/12/14 08:42:57;;;;;;;34.08;21.50;;;;;;;2.01;100.00;94663.31;5094307;28;20449;-77
2022/12/14 08:45:24;;;;;;;30.45;22.10;;;;;;;2.04;100.00;94651.09;5093914;28;20223;-77
2022/12/14 08:47:50;;;;;;;25.50;19.45;;;;;;;1.96;100.00;94648.06;5086106;28;20213;-77
2022/12/14 08:50:17;;;;;;;24.13;17.87;;;;;;;1.97;100.00;94639.38;5080692;28;20209;-75
2022/12/14 08:52:47;;;;;;;24.50;17.52;;;;;;;2.06;100.00;94627.72;5076388;28;20938;-78
2022/12/14 08:55:15;;;;;;;27.97;14.03;;;;;;;2.13;100.00;94635.03;5083507;28;20268;-79
2022/12/14 08:57:42;;;;;;;16.40;12.17;;;;;;;2.26;100.00;94648.09;5089806;28;20433;-78
2022/12/14 09:00:10;;;;;;;13.95;11.18;;;;;;;2.38;100.00;94644.00;5073434;28;20477;-78
2022/12/14 09:06:03;;;;;;;19.30;16.07;;;;;;;2.44;100.00;94631.53;5072215;28;20660;-78
2022/12/14 09:08:30;;;;;;;21.10;15.03;;;;;;;2.53;100.00;94631.91;5073679;28;20461;-78
2022/12/14 09:10:58;;;;;;;16.00;11.53;;;;;;;2.39;100.00;94640.50;5073263;28;20801;-77
2022/12/14 09:13:25;;;;;;;20.43;15.10;;;;;;;2.33;100.00;94613.22;5044254;28;20453;-78
2022/12/14 09:15:59;;;;;;;17.77;13.93;;;;;;;2.48;100.00;94625.25;5087541;28;20488;-79
2022/12/14 09:18:26;;;;;;;19.17;12.80;;;;;;;2.63;100.00;94625.31;5087217;28;20447;-78
2022/12/14 09:20:54;;;;;;;13.87;10.90;;;;;;;2.62;100.00;94621.88;5092989;28;20450;-78
2022/12/14 09:23:23;;;;;;;18.47;13.47;;;;;;;2.62;100.00;94621.88;5058564;28;20464;-78
2022/12/14 09:26:00;;;;;;;19.37;13.13;;;;;;;2.52;100.00;94604.34;5080594;28;20489;-77
2022/12/14 09:35:10;;;;;;;21.00;15.50;;;;;;;2.64;100.00;94614.84;5090048;28;20429;-78
2022/12/14 09:37:37;;;;;;;23.70;18.35;;;;;;;2.72;100.00;94601.44;5090458;28;20432;-78
2022/12/14 09:40:05;;;;;;;23.10;17.23;;;;;;;2.77;100.00;94587.28;5084035;28;20229;-78
2022/12/14 09:42:52;;;;;;;42.53;25.53;;;;;;;2.88;100.00;94593.59;5073997;28;20451;-78
2022/12/14 09:45:25;;;;;;;29.77;21.53;;;;;;;2.79;99.75;94597.56;5073146;28;20441;-78
2022/12/14 09:47:58;;;;;;;23.10;17.43;;;;;;;2.80;99.93;94601.81;5073411;28;20562;-78
2022/12/14 09:50:26;;;;;;;25.10;18.37;;;;;;;2.65;100.00;94595.81;5077049;28;20434;-78
2022/12/14 09:52:55;;;;;;;23.50;16.47;;;;;;;2.60;100.00;94590.06;5076610;28;20542;-78
2022/12/14 09:55:25;;;;;;;21.00;14.80;;;;;;;2.41;100.00;94597.22;5085782;28;20490;-78
2022/12/14 09:57:58;;;;;;;25.20;15.90;;;;;;;2.49;100.00;94601.03;5044474;28;20446;-78
2022/12/14 10:00:31;;;;;;;16.87;12.37;;;;;;;2.48;100.00;94601.94;5097216;28;20450;-79
2022/12/14 10:03:14;;;;;;;21.03;13.80;;;;;;;2.52;99.68;94599.19;5097005;28;20966;-78
2022/12/14 10:06:02;;;;;;;15.03;11.47;;;;;;;2.59;100.00;94603.06;5096715;28;20794;-77
2022/12/14 10:08:34;;;;;;;16.00;11.43;;;;;;;2.60;100.00;94594.38;5097598;28;20448;-78
2022/12/14 10:11:06;;;;;;;17.77;13.87;;;;;;;2.73;100.00;94574.63;5096939;28;20432;-78
2022/12/14 10:13:49;;;;;;;26.00;16.60;;;;;;;2.78;100.00;94565.63;5096329;28;20921;-77
2022/12/14 10:16:26;;;;;;;27.40;17.00;;;;;;;2.91;98.84;94581.31;5096066;28;20909;-78
2022/12/14 10:19:09;;;;;;;21.10;12.73;;;;;;;2.99;98.56;94566.13;5096264;28;20804;-77
2022/12/14 10:21:46;;;;;;;14.57;12.00;;;;;;;3.10;97.45;94574.06;5096632;28;20459;-78
2022/12/14 10:24:20;;;;;;;21.10;13.20;;;;;;;3.22;97.41;94574.25;5096385;28;20937;-78
2022/12/14 10:26:51;;;;;;;18.67;12.97;;;;;;;3.28;95.98;94573.88;5094437;28;20941;-78
2022/12/14 10:29:27;;;;;;;15.30;13.13;;;;;;;3.42;96.74;94560.88;5076264;28;20437;-77
2022/12/14 10:32:03;;;;;;;18.00;13.80;;;;;;;3.54;95.27;94560.13;5076098;28;20428;-77
2022/12/14 10:34:32;;;;;;;27.60;21.63;;;;;;;3.56;95.19;94560.03;5076205;28;20452;-76
2022/12/14 10:37:11;;;;;;;42.20;25.33;;;;;;;3.60;95.83;94564.94;5075964;28;20627;-77
2022/12/14 10:39:47;;;;;;;35.63;21.97;;;;;;;3.53;95.52;94547.25;5076366;28;20458;-78
2022/12/14 10:42:21;;;;;;;24.97;16.93;;;;;;;3.60;95.24;94544.16;5076892;28;20507;-77
2022/12/14 10:44:59;;;;;;;42.87;16.97;;;;;;;3.63;94.62;94553.53;5027815;28;20800;-77
2022/12/14 10:47:32;;;;;;;20.17;15.90;;;;;;;3.68;94.34;94549.69;5075932;28;20839;-77
2022/12/14 10:50:05;;;;;;;21.57;17.33;;;;;;;3.70;93.49;94550.44;5023583;28;20429;-77
2022/12/14 10:52:37;;;;;;;21.80;17.43;;;;;;;3.78;93.45;94541.34;5074280;28;20445;-77
2022/12/14 10:55:12;;;;;;;23.97;18.97;;;;;;;3.82;93.50;94548.84;5037021;28;20470;-76
2022/12/14 10:57:39;;;;;;;24.60;18.17;;;;;;;3.78;93.41;94541.34;5055991;28;20542;-77
2022/12/14 11:00:13;;;;;;;25.20;18.07;;;;;;;3.72;93.29;94540.78;5054362;28;20450;-77
2022/12/14 11:02:41;;;;;;;24.73;20.43;;;;;;;3.71;92.95;94540.88;5055705;28;20432;-78
2022/12/14 11:05:19;;;;;;;21.87;16.97;;;;;;;3.62;94.03;94536.28;5055590;28;20441;-78
2022/12/14 11:07:48;;;;;;;24.00;19.90;;;;;;;3.60;94.80;94538.16;5056146;28;20426;-76
2022/12/14 11:10:19;;;;;;;22.43;17.30;;;;;;;3.59;95.51;94531.31;5055264;28;20499;-78
2022/12/14 11:13:00;;;;;;;32.43;18.30;;;;;;;3.56;95.32;94521.94;5055605;28;20484;-77
2022/12/14 11:15:32;;;;;;;27.93;15.17;;;;;;;3.62;95.51;94534.53;5054907;28;20431;-76
2022/12/14 11:18:05;;;;;;;32.30;21.70;;;;;;;3.65;95.23;94517.94;5055229;28;20444;-75
2022/12/14 11:20:33;;;;;;;24.30;18.97;;;;;;;3.68;94.89;94512.53;5055233;28;20441;-74
2022/12/14 11:23:08;;;;;;;29.50;21.70;;;;;;;3.74;95.20;94507.78;5054867;28;20532;-76
2022/12/14 11:25:38;;;;;;;23.60;17.47;;;;;;;3.81;94.41;94504.81;5054997;28;20524;-76
2022/12/14 11:28:21;;;;;;;21.43;15.20;;;;;;;3.78;93.38;94516.22;5055218;28;20956;-76
2022/12/14 11:30:59;;;;;;;25.87;17.57;;;;;;;3.76;95.07;94506.84;5054934;28;20460;-76
2022/12/14 11:33:31;;;;;;;29.40;19.83;;;;;;;3.85;95.74;94506.28;5054119;28;20492;-77
2022/12/14 11:35:59;;;;;;;59.03;37.27;;;;;;;3.98;95.68;94507.13;5054489;28;20803;-77
2022/12/14 11:38:28;;;;;;;36.37;24.73;;;;;;;3.92;94.92;94497.16;5055040;28;20441;-77
2022/12/14 11:40:55;;;;;;;27.67;19.27;;;;;;;3.98;94.58;94497.59;5054473;28;20882;-77
2022/12/14 11:43:28;;;;;;;42.67;18.60;;;;;;;4.08;92.82;94497.84;5054822;28;20441;-77
2022/12/14 11:45:57;;;;;;;40.03;25.47;;;;;;;4.06;92.10;94494.50;5054612;28;20483;-77
2022/12/14 11:48:29;;;;;;;49.93;30.40;;;;;;;4.04;92.67;94488.56;5054590;28;20438;-76
2022/12/14 11:51:10;;;;;;;30.27;22.53;;;;;;;3.99;91.91;94483.66;5054682;28;20453;-77
2022/12/14 11:53:36;;;;;;;27.73;18.37;;;;;;;3.87;92.73;94497.47;5054525;28;20441;-77
2022/12/14 11:56:06;;;;;;;34.20;20.57;;;;;;;3.77;93.90;94499.00;5066932;28;20488;-76
2022/12/14 11:58:36;;;;;;;26.90;20.13;;;;;;;3.78;93.67;94490.28;5074657;28;20498;-75
2022/12/14 12:01:06;;;;;;;29.33;20.10;;;;;;;3.90;95.49;94494.66;5074336;28;21059;-76
2022/12/14 12:03:36;;;;;;;33.00;17.70;;;;;;;3.94;95.08;94495.28;5074364;28;20437;-77
2022/12/14 12:06:07;;;;;;;25.63;17.40;;;;;;;3.92;93.92;94484.19;5074170;28;20456;-77
2022/12/14 12:08:37;;;;;;;26.33;18.23;;;;;;;4.01;92.48;94499.16;5023427;28;20448;-78
2022/12/14 12:11:06;;;;;;;28.10;19.03;;;;;;;4.00;93.67;94493.13;5073756;28;20498;-77
2022/12/14 12:13:38;;;;;;;31.30;21.00;;;;;;;4.03;92.79;94484.28;5073442;28;20478;-77
2022/12/14 12:16:13;;;;;;;31.53;18.00;;;;;;;3.96;93.49;94494.25;5073070;28;20507;-77
2022/12/14 12:18:45;;;;;;;30.20;20.17;;;;;;;3.94;94.58;94485.75;5073331;28;20830;-78
2022/12/14 12:21:16;;;;;;;27.43;18.83;;;;;;;3.83;94.25;94477.84;5072944;28;20935;-79
2022/12/14 12:23:49;;;;;;;20.83;15.87;;;;;;;3.99;93.41;94481.06;5074174;28;20448;-77
2022/12/14 12:26:21;;;;;;;25.93;17.47;;;;;;;3.96;91.87;94467.47;5072377;28;20448;-78
2022/12/14 12:28:54;;;;;;;31.70;16.97;;;;;;;4.06;92.64;94470.31;5072529;28;20445;-77